Terminal Aerodrome Forecast
Issued by NWS Wilmington, NC

Current Version | Previous Version | Graphics & Text | Print | Product List | Glossary Off
Versions: 1 2 3 4 5 6 7 8 9 10 11 12 13 14 15 16

000
FTUS42 KILM 221700
TAFMYR
TAF
KMYR 221727Z 2218/2318 35007KT 4SM -RA BR OVC004
      TEMPO 2218/2222 2SM -RA BR OVC006
     FM222200 02007KT 2SM RA BR OVC004
     FM230300 05004KT 3SM BR VCSH OVC003
     FM231500 16007KT P6SM VCSH BKN006 OVC035=

USA.gov is the U.S. government's official web portal to all federal, state and local government web resources and services.